Time;durP1;ratioP1;P1;durP2;ratioP2;P2;SDS_P1;SDS_P2;PMS_P1;PMS_P2;Temp;Humidity;BMP_temperature;BMP_pressure;BME280_temperature;BME280_humidity;BME280_pressure;Samples;Min_cycle;Max_cycle;Signal;HPM_P1;HPM_P2
2021/12/21 00:01:33;;;;;;;;;25.33;20.67;;;;;4.45;100.00;102070.81;5023074;28;44818;-82
2021/12/21 00:03:59;;;;;;;;;21.33;21.33;;;;;4.45;100.00;102067.28;5021338;28;45356;-83
2021/12/21 00:06:24;;;;;;;;;24.67;20.67;;;;;4.44;100.00;102076.94;5021206;28;45647;-82
2021/12/21 00:08:51;;;;;;;;;33.00;23.67;;;;;4.42;100.00;102076.13;5021795;28;45371;-82
2021/12/21 00:11:16;;;;;;;;;22.00;17.00;;;;;4.39;100.00;102056.00;5024777;28;45384;-82
2021/12/21 00:13:56;;;;;;;;;28.00;21.00;;;;;4.39;100.00;102057.75;5022946;28;44798;-81
2021/12/21 00:19:23;;;;;;;;;26.33;21.67;;;;;4.31;100.00;102046.53;5018378;28;45471;-82
2021/12/21 00:21:56;;;;;;;;;16.00;10.67;;;;;4.27;100.00;102044.88;5017371;28;45400;-82
2021/12/21 00:24:24;;;;;;;;;32.67;20.00;;;;;4.24;100.00;102044.91;5017649;28;45359;-82
2021/12/21 00:26:49;;;;;;;;;29.33;22.33;;;;;4.19;100.00;102045.00;5018341;28;45217;-82
2021/12/21 00:29:15;;;;;;;;;15.00;8.67;;;;;4.15;100.00;102051.22;5019039;28;45394;-83
2021/12/21 00:31:40;;;;;;;;;23.67;20.33;;;;;4.14;100.00;102067.91;5018841;28;44767;-82
2021/12/21 00:34:08;;;;;;;;;30.33;22.00;;;;;4.09;100.00;102049.56;5023702;28;44885;-82
2021/12/21 00:36:35;;;;;;;;;19.67;18.33;;;;;4.06;100.00;102051.38;5018947;28;45368;-83
2021/12/21 00:39:06;;;;;;;;;20.00;18.33;;;;;4.03;100.00;102048.84;5017310;28;45327;-81
2021/12/21 00:41:34;;;;;;;;;27.00;21.50;;;;;3.99;100.00;102042.75;5017566;28;44789;-82
2021/12/21 00:44:00;;;;;;;;;21.33;20.00;;;;;3.97;100.00;102048.97;5017382;28;44859;-82
2021/12/21 00:46:25;;;;;;;;;19.00;14.33;;;;;3.94;100.00;102051.63;5017252;28;44850;-81
2021/12/21 00:48:54;;;;;;;;;21.33;19.67;;;;;3.91;100.00;102041.16;5017828;28;45590;-80
2021/12/21 00:51:22;;;;;;;;;27.67;21.33;;;;;3.90;100.00;102049.94;5019610;28;44757;-82
2021/12/21 00:53:48;;;;;;;;;30.67;25.33;;;;;3.86;100.00;102043.88;5001697;28;44836;-82
2021/12/21 00:56:14;;;;;;;;;27.00;20.00;;;;;3.84;100.00;102045.66;5020605;28;45328;-81
2021/12/21 00:58:40;;;;;;;;;30.00;20.67;;;;;3.82;100.00;102044.81;5027088;28;45016;-82
2021/12/21 01:01:07;;;;;;;;;27.00;23.00;;;;;3.82;100.00;102045.72;5025912;28;44778;-82
2021/12/21 01:03:39;;;;;;;;;24.67;15.67;;;;;3.79;100.00;102037.88;5023513;28;44885;-82
2021/12/21 01:06:14;;;;;;;;;20.00;20.00;;;;;3.80;100.00;102041.34;5020402;28;44929;-82
2021/12/21 01:08:58;;;;;;;;;26.00;22.67;;;;;3.81;100.00;102040.47;5017258;28;45337;-83
2021/12/21 01:11:37;;;;;;;;;20.00;18.67;;;;;3.79;100.00;102035.25;5017275;28;45596;-82
2021/12/21 01:19:36;;;;;;;;;28.00;24.67;;;;;3.81;100.00;102032.56;5018549;28;44920;-81
2021/12/21 01:22:14;;;;;;;;;23.00;18.67;;;;;3.82;100.00;102026.41;5016030;28;45131;-81
2021/12/21 01:35:10;;;;;;;;;22.67;16.67;;;;;3.77;100.00;102023.00;5017121;28;45366;-81
2021/12/21 01:42:53;;;;;;;;;24.00;16.00;;;;;3.76;100.00;102034.41;5021867;28;45346;-82
2021/12/21 01:50:53;;;;;;;;;19.33;18.33;;;;;3.74;100.00;102023.94;5016062;28;45321;-82
2021/12/21 01:53:18;;;;;;;;;22.00;18.33;;;;;3.72;100.00;102024.84;5016652;28;44806;-81
2021/12/21 01:55:44;;;;;;;;;24.00;20.00;;;;;3.70;100.00;102029.28;5016271;28;44747;-81
2021/12/21 01:58:10;;;;;;;;;17.33;17.33;;;;;3.68;100.00;102024.06;5018036;28;44702;-82
2021/12/21 02:00:37;;;;;;;;;18.67;18.00;;;;;3.66;100.00;102032.84;5016633;28;45289;-81
2021/12/21 02:03:03;;;;;;;;;22.33;15.67;;;;;3.65;100.00;102034.63;5016336;28;44787;-80
2021/12/21 02:05:28;;;;;;;;;20.00;12.00;;;;;3.63;100.00;102033.78;5021188;28;44845;-81
2021/12/21 02:07:54;;;;;;;;;19.33;16.00;;;;;3.62;100.00;102024.16;5021128;28;45482;-81
2021/12/21 02:10:20;;;;;;;;;14.00;13.00;;;;;3.62;100.00;102026.78;5020956;28;45352;-81
2021/12/21 02:12:46;;;;;;;;;17.67;14.00;;;;;3.58;100.00;102023.34;5017618;28;45292;-82
2021/12/21 02:15:11;;;;;;;;;16.33;13.67;;;;;3.59;100.00;102021.59;5017196;28;45160;-82
2021/12/21 02:22:53;;;;;;;;;26.00;21.00;;;;;3.56;100.00;102016.38;5016841;28;45395;-81
2021/12/21 02:30:48;;;;;;;;;21.67;15.67;;;;;3.55;100.00;102004.13;5034143;28;45416;-81
2021/12/21 02:33:14;;;;;;;;;14.33;14.33;;;;;3.54;100.00;102005.91;5033308;28;45483;-81
2021/12/21 02:35:40;;;;;;;;;20.33;20.33;;;;;3.54;100.00;101998.03;5033537;28;45490;-80
2021/12/21 02:38:06;;;;;;;;;21.67;16.67;;;;;3.55;100.00;102001.50;5034035;28;44914;-81
2021/12/21 02:40:33;;;;;;;;;16.67;12.67;;;;;3.54;100.00;101991.91;5033437;28;45570;-81
2021/12/21 02:42:58;;;;;;;;;20.33;19.33;;;;;3.51;100.00;101991.94;5016327;28;45490;-80
2021/12/21 02:45:24;;;;;;;;;24.33;19.67;;;;;3.54;100.00;101992.78;5033597;28;44789;-80
2021/12/21 02:47:50;;;;;;;;;24.33;18.33;;;;;3.53;100.00;101992.78;5016134;28;45392;-81
2021/12/21 02:50:15;;;;;;;;;21.67;18.00;;;;;3.53;100.00;101984.88;5033672;28;45604;-81
2021/12/21 02:52:41;;;;;;;;;21.67;20.00;;;;;3.51;100.00;101986.69;5033156;28;44963;-80
2021/12/21 02:55:07;;;;;;;;;11.33;11.33;;;;;3.51;100.00;101977.06;5033512;28;44735;-81
2021/12/21 02:57:33;;;;;;;;;25.67;19.33;;;;;3.52;100.00;101977.91;5016692;28;45008;-81
2021/12/21 03:00:01;;;;;;;;;21.33;17.67;;;;;3.52;100.00;101984.03;5033323;28;45600;-82
2021/12/21 03:02:27;;;;;;;;;21.33;20.00;;;;;3.52;100.00;101965.63;5038123;28;44781;-82
2021/12/21 03:04:52;;;;;;;;;21.00;19.33;;;;;3.57;100.00;101970.81;5046663;28;44759;-81
2021/12/21 03:09:57;;;;;;;;;16.67;16.33;;;;;3.56;100.00;101971.72;5027833;28;45430;-80
2021/12/21 03:14:50;;;;;;;;;17.00;16.00;;;;;3.52;100.00;101970.03;5025814;28;44724;-78
2021/12/21 03:17:15;;;;;;;;;11.33;11.33;;;;;3.51;100.00;101968.31;5019663;28;44846;-79
2021/12/21 03:19:41;;;;;;;;;19.00;19.00;;;;;3.50;100.00;101964.81;5024432;28;45328;-80
2021/12/21 03:22:08;;;;;;;;;20.33;18.00;;;;;3.49;100.00;101973.59;5020824;28;44759;-80
2021/12/21 03:24:35;;;;;;;;;19.00;16.33;;;;;3.45;100.00;101979.78;5015623;28;44852;-80
2021/12/21 03:27:01;;;;;;;;;18.00;15.00;;;;;3.42;100.00;101979.84;5015170;28;45342;-79
2021/12/21 03:29:27;;;;;;;;;20.33;16.67;;;;;3.41;100.00;101978.09;5014936;28;45434;-79
2021/12/21 03:31:53;;;;;;;;;23.00;19.67;;;;;3.37;100.00;101970.31;5018642;28;45336;-79
2021/12/21 03:34:18;;;;;;;;;18.33;15.33;;;;;3.32;100.00;101971.25;5016698;28;44854;-80
2021/12/21 03:36:44;;;;;;;;;19.67;12.67;;;;;3.27;100.00;101973.09;5013831;28;45166;-79
2021/12/21 03:39:16;;;;;;;;;24.33;20.67;;;;;3.24;100.00;101969.63;5015097;28;45383;-80
2021/12/21 03:41:46;;;;;;;;;18.33;14.67;;;;;3.22;100.00;101968.81;5015104;28;45541;-79
2021/12/21 03:44:12;;;;;;;;;18.33;18.00;;;;;3.19;100.00;101977.63;5015252;28;44825;-78
2021/12/21 03:46:45;;;;;;;;;22.67;18.00;;;;;3.15;100.00;101973.31;5016819;28;44813;-79
2021/12/21 03:49:50;;;;;;;;;17.33;16.33;;;;;3.13;100.00;101975.06;5018757;28;45408;-79
2021/12/21 03:51:56;;;;;;;;;19.00;14.33;;;;;3.10;100.00;101977.75;5020357;28;45265;-79
2021/12/21 03:54:23;;;;;;;;;23.33;21.67;;;;;3.06;100.00;101970.81;5021245;28;45288;-80
2021/12/21 03:56:50;;;;;;;;;23.00;18.67;;;;;3.01;100.00;101968.28;5025299;28;45015;-79
2021/12/21 03:59:18;;;;;;;;;15.67;15.33;;;;;2.98;100.00;101975.31;5025592;28;45006;-79
2021/12/21 04:01:44;;;;;;;;;16.67;7.33;;;;;2.94;100.00;101973.63;5018657;28;44949;-79
2021/12/21 04:04:10;;;;;;;;;17.67;13.33;;;;;2.92;100.00;101980.66;5018393;28;44877;-79
2021/12/21 04:06:36;;;;;;;;;17.67;14.67;;;;;2.89;100.00;101978.09;5017920;28;44825;-79
2021/12/21 04:09:04;;;;;;;;;17.67;12.00;;;;;2.84;100.00;101972.91;5018022;28;45383;-79
2021/12/21 04:11:31;;;;;;;;;15.67;14.67;;;;;2.80;100.00;101971.19;5019138;28;45383;-78
2021/12/21 04:13:56;;;;;;;;;19.00;14.00;;;;;2.75;100.00;101970.41;5020761;28;45423;-79
2021/12/21 04:16:22;;;;;;;;;12.67;11.67;;;;;2.72;100.00;101967.84;5019637;28;45344;-79
2021/12/21 04:18:47;;;;;;;;;18.33;18.00;;;;;2.73;100.00;101965.19;5019138;28;45064;-79
2021/12/21 04:21:15;;;;;;;;;23.00;16.00;;;;;2.71;100.00;101972.22;5019594;28;45324;-79
2021/12/21 04:23:41;;;;;;;;;19.67;16.00;;;;;2.70;100.00;101970.47;5018712;28;44710;-79
2021/12/21 04:26:12;;;;;;;;;20.67;17.67;;;;;2.68;100.00;101966.16;5020745;28;44861;-80
2021/12/21 04:28:38;;;;;;;;;16.67;11.67;;;;;2.68;100.00;101959.16;5028406;28;45451;-80
2021/12/21 04:31:04;;;;;;;;;20.33;16.33;;;;;2.66;100.00;101967.91;5021279;28;44758;-79
2021/12/21 04:33:31;;;;;;;;;22.67;16.33;;;;;2.63;100.00;101960.97;5018282;28;45316;-80
2021/12/21 04:35:57;;;;;;;;;21.33;18.00;;;;;2.61;100.00;101968.00;5017784;28;44909;-80
2021/12/21 04:38:27;;;;;;;;;20.00;17.67;;;;;2.56;100.00;101960.22;5018000;28;45233;-80
2021/12/21 04:41:16;;;;;;;;;12.00;10.00;;;;;2.53;100.00;101965.47;5022322;28;45376;-79
2021/12/21 04:43:42;;;;;;;;;15.33;12.00;;;;;2.48;100.00;101963.81;5019479;28;45369;-79
2021/12/21 04:46:09;;;;;;;;;12.00;12.00;;;;;2.47;100.00;101970.81;5017798;28;44910;-79
2021/12/21 04:48:35;;;;;;;;;19.33;13.67;;;;;2.46;100.00;101960.31;5017280;28;45285;-78
2021/12/21 04:51:02;;;;;;;;;16.67;14.33;;;;;2.43;100.00;101963.00;5018572;28;44789;-79
2021/12/21 04:53:29;;;;;;;;;13.33;9.67;;;;;2.41;100.00;101960.38;5024138;28;44704;-79
2021/12/21 04:55:55;;;;;;;;;18.67;14.00;;;;;2.39;100.00;101962.19;5020484;28;45547;-78
2021/12/21 04:58:21;;;;;;;;;23.00;17.67;;;;;2.38;100.00;101960.44;5016577;28;46396;-80
2021/12/21 05:00:48;;;;;;;;;20.00;16.67;;;;;2.36;100.00;101961.34;5017331;28;45349;-78
2021/12/21 05:03:14;;;;;;;;;13.67;13.67;;;;;2.34;100.00;101956.13;5017127;28;45183;-79
2021/12/21 05:05:40;;;;;;;;;30.67;17.00;;;;;2.30;100.00;101955.28;5017103;28;44807;-79
2021/12/21 05:08:11;;;;;;;;;16.33;14.00;;;;;2.27;100.00;101967.56;5016972;28;45162;-79
2021/12/21 05:10:48;;;;;;;;;16.33;13.67;;;;;2.23;100.00;101963.28;5017681;28;45338;-78
2021/12/21 05:13:18;;;;;;;;;12.00;11.33;;;;;2.20;100.00;101961.53;5017019;28;45397;-79
2021/12/21 05:15:44;;;;;;;;;16.00;14.00;;;;;2.19;100.00;101972.06;5019587;28;44830;-78
2021/12/21 05:18:12;;;;;;;;;18.67;14.67;;;;;2.17;100.00;101965.94;5020047;28;45159;-79
2021/12/21 05:20:38;;;;;;;;;19.33;14.33;;;;;2.14;100.00;101972.13;5018486;28;44746;-78
2021/12/21 05:23:04;;;;;;;;;17.67;14.33;;;;;2.13;100.00;101978.25;5017898;28;44803;-78
2021/12/21 05:25:30;;;;;;;;;18.00;9.67;;;;;2.10;100.00;101975.66;5023666;28;45241;-79
2021/12/21 05:27:57;;;;;;;;;16.00;13.67;;;;;2.08;100.00;101972.19;5023383;28;45534;-79
2021/12/21 05:30:23;;;;;;;;;21.00;15.33;;;;;2.04;100.00;101967.88;5021617;28;44848;-78
2021/12/21 05:32:50;;;;;;;;;21.67;13.33;;;;;2.01;100.00;101968.75;5017113;28;44735;-80
2021/12/21 05:35:16;;;;;;;;;17.00;12.00;;;;;1.98;100.00;101974.06;5016670;28;44850;-79
2021/12/21 05:37:42;;;;;;;;;18.33;13.33;;;;;1.97;100.00;101981.91;5015361;28;45447;-80
2021/12/21 05:40:14;;;;;;;;;17.00;12.33;;;;;1.94;100.00;101982.84;5016572;28;44825;-79
2021/12/21 05:42:41;;;;;;;;;15.67;15.00;;;;;1.91;100.00;101980.25;5019894;28;44785;-79
2021/12/21 05:45:07;;;;;;;;;22.67;15.33;;;;;1.88;100.00;101977.63;5036371;28;44900;-79
2021/12/21 05:47:33;;;;;;;;;21.67;18.67;;;;;1.85;100.00;101976.84;5034797;28;45575;-78
2021/12/21 05:49:59;;;;;;;;;19.33;15.33;;;;;1.83;100.00;101978.59;5036251;28;44948;-79
2021/12/21 05:52:26;;;;;;;;;19.00;18.00;;;;;1.78;100.00;101969.00;5034993;28;45391;-80
2021/12/21 05:54:51;;;;;;;;;18.00;12.67;;;;;1.76;100.00;101973.41;5036588;28;45390;-79
2021/12/21 05:57:17;;;;;;;;;13.67;13.33;;;;;1.72;100.00;101978.69;5035866;28;45226;-79
2021/12/21 05:59:42;;;;;;;;;22.00;16.33;;;;;1.71;100.00;101982.22;5036212;28;44754;-80
2021/12/21 06:02:09;;;;;;;;;16.00;15.33;;;;;1.70;100.00;101985.72;5036460;28;45412;-80
2021/12/21 06:04:34;;;;;;;;;22.33;16.00;;;;;1.68;100.00;101987.47;5036407;28;44791;-81
2021/12/21 06:07:00;;;;;;;;;17.33;15.33;;;;;1.63;100.00;101977.03;5035931;28;45375;-79
2021/12/21 06:09:27;;;;;;;;;18.00;13.33;;;;;1.64;100.00;101981.38;5038325;28;45342;-80
2021/12/21 06:22:45;;;;;;;;;24.00;19.67;;;;;1.53;100.00;101989.34;5036672;28;44782;-80
2021/12/21 06:27:50;;;;;;;;;14.00;11.00;;;;;1.50;100.00;101985.91;5033640;28;45021;-80
2021/12/21 06:30:16;;;;;;;;;22.67;19.00;;;;;1.50;100.00;101988.53;5033543;28;44834;-79
2021/12/21 06:32:41;;;;;;;;;17.67;14.67;;;;;1.48;100.00;101985.91;5033737;28;45253;-79
2021/12/21 06:35:08;;;;;;;;;21.00;17.00;;;;;1.46;100.00;101985.06;5033206;28;44815;-80
2021/12/21 06:37:34;;;;;;;;;15.33;15.00;;;;;1.45;100.00;101978.09;5033296;28;45684;-79
2021/12/21 06:39:59;;;;;;;;;19.67;14.67;;;;;1.45;100.00;101979.81;5033246;28;44699;-79
2021/12/21 06:42:26;;;;;;;;;16.67;13.00;;;;;1.45;100.00;101980.72;5031217;28;44707;-80
2021/12/21 06:44:56;;;;;;;;;20.33;15.67;;;;;1.44;100.00;101975.47;4997345;28;44900;-81
2021/12/21 06:52:58;;;;;;;;;23.33;16.67;;;;;1.39;100.00;101980.75;5014221;28;44766;-80
2021/12/21 06:55:23;;;;;;;;;23.33;17.33;;;;;1.38;100.00;101984.25;5005800;28;44824;-81
2021/12/21 06:57:49;;;;;;;;;20.33;16.00;;;;;1.37;100.00;101981.66;4978108;28;45124;-81
2021/12/21 07:00:16;;;;;;;;;18.33;14.00;;;;;1.35;100.00;101984.28;4979296;28;44788;-79
2021/12/21 07:02:42;;;;;;;;;22.67;19.33;;;;;1.35;100.00;101975.56;4974824;28;45399;-80
2021/12/21 07:05:10;;;;;;;;;18.67;17.67;;;;;1.31;100.00;101982.59;4974234;28;45065;-80
2021/12/21 07:07:36;;;;;;;;;23.33;15.33;;;;;1.28;100.00;101975.63;4973715;28;45284;-81
2021/12/21 07:10:07;;;;;;;;;17.00;15.67;;;;;1.26;100.00;101974.78;4973715;28;45368;-80
2021/12/21 07:20:28;;;;;;;;;21.33;16.67;;;;;1.23;100.00;101980.03;4964094;28;44840;-81
2021/12/21 07:22:55;;;;;;;;;24.33;18.33;;;;;1.20;100.00;101987.88;4981734;28;44976;-81
2021/12/21 07:25:21;;;;;;;;;19.67;16.00;;;;;1.20;100.00;101987.03;4980585;28;44867;-80
2021/12/21 07:27:46;;;;;;;;;33.00;20.00;;;;;1.18;100.00;101984.44;5011040;28;45065;-81
2021/12/21 07:30:11;;;;;;;;;15.67;14.67;;;;;1.16;100.00;101988.81;5018035;28;45479;-80
2021/12/21 07:32:39;;;;;;;;;19.67;16.00;;;;;1.16;100.00;101990.53;5018709;28;44825;-80
2021/12/21 07:35:05;;;;;;;;;23.33;17.33;;;;;1.13;100.00;101996.69;5018698;28;45346;-82
2021/12/21 07:37:31;;;;;;;;;22.67;15.67;;;;;1.09;100.00;101992.34;5019152;28;45401;-81
2021/12/21 07:39:56;;;;;;;;;23.33;20.33;;;;;1.11;100.00;102008.03;5019733;28;45271;-80
2021/12/21 07:42:23;;;;;;;;;31.33;15.00;;;;;1.08;100.00;102000.22;5019690;28;44763;-80
2021/12/21 07:44:49;;;;;;;;;21.33;16.00;;;;;1.07;100.00;101995.88;5024913;28;44797;-80
2021/12/21 07:47:16;;;;;;;;;18.33;17.67;;;;;1.09;100.00;101994.09;5022891;28;45186;-81
2021/12/21 07:49:42;;;;;;;;;21.00;16.67;;;;;1.09;100.00;101991.50;5018516;28;44898;-82
2021/12/21 07:52:09;;;;;;;;;20.33;15.00;;;;;1.08;100.00;101989.75;5019862;28;44783;-83
2021/12/21 07:54:59;;;;;;;;;20.33;20.33;;;;;1.08;100.00;101998.47;5023142;28;44860;-89
2021/12/21 07:57:25;;;;;;;;;20.00;15.00;;;;;1.10;100.00;101994.09;5023596;28;45441;-84
2021/12/21 07:59:51;;;;;;;;;17.67;16.33;;;;;1.12;100.00;102004.56;5035775;28;44829;-86
2021/12/21 08:02:18;;;;;;;;;15.00;12.00;;;;;1.13;100.00;101996.69;5035533;28;44894;-83
2021/12/21 08:04:44;;;;;;;;;18.67;17.00;;;;;1.15;100.00;102002.75;5018264;28;44900;-84
2021/12/21 08:07:14;;;;;;;;;20.00;16.33;;;;;1.19;100.00;101996.63;5018987;28;45132;-83
2021/12/21 08:09:45;;;;;;;;;20.00;16.00;;;;;1.20;100.00;102006.22;5034367;28;44707;-83
2021/12/21 08:14:36;;;;;;;;;23.33;18.33;;;;;1.20;100.00;102006.22;5018292;28;44818;-83
2021/12/21 08:17:02;;;;;;;;;23.00;16.67;;;;;1.25;100.00;102001.81;5018621;28;45285;-83
2021/12/21 08:19:27;;;;;;;;;24.67;17.33;;;;;1.25;100.00;102014.91;5020119;28;44801;-84
2021/12/21 08:21:53;;;;;;;;;27.67;19.67;;;;;1.29;100.00;102015.75;5018234;28;44793;-83
2021/12/21 08:24:18;;;;;;;;;21.67;17.33;;;;;1.31;100.00;102008.78;5023054;28;44984;-85
2021/12/21 08:26:44;;;;;;;;;21.00;15.67;;;;;1.34;100.00;102006.09;5026238;28;45626;-84
2021/12/21 08:29:09;;;;;;;;;18.33;16.00;;;;;1.37;100.00;101997.38;5024776;28;45328;-83
2021/12/21 08:31:34;;;;;;;;;23.67;19.33;;;;;1.42;100.00;102006.06;5022317;28;44786;-83
2021/12/21 08:34:00;;;;;;;;;21.67;18.33;;;;;1.45;100.00;101996.44;5023094;28;45028;-84
2021/12/21 08:36:25;;;;;;;;;19.33;15.00;;;;;1.49;100.00;102005.09;5018748;28;45320;-85
2021/12/21 08:38:51;;;;;;;;;18.33;15.67;;;;;1.51;100.00;102005.97;5019964;28;44727;-86
2021/12/21 08:41:17;;;;;;;;;20.33;18.00;;;;;1.56;100.00;102011.16;5027236;28;44718;-86
2021/12/21 08:43:42;;;;;;;;;24.33;16.67;;;;;1.58;100.00;102005.03;5025231;28;44896;-85
2021/12/21 08:46:08;;;;;;;;;22.33;16.33;;;;;1.58;100.00;102001.53;5022269;28;45457;-84
2021/12/21 08:48:35;;;;;;;;;15.67;11.00;;;;;1.60;100.00;101999.78;5023856;28;44784;-84
2021/12/21 08:51:01;;;;;;;;;22.67;14.33;;;;;1.59;100.00;102004.13;5024464;28;44694;-85
2021/12/21 08:53:27;;;;;;;;;21.67;17.33;;;;;1.64;100.00;102012.81;5021301;28;45296;-84
2021/12/21 08:55:54;;;;;;;;;24.33;19.00;;;;;1.68;100.00;102009.28;5019584;28;45266;-84
2021/12/21 08:58:20;;;;;;;;;15.67;14.67;;;;;1.73;100.00;102004.00;5039054;28;44667;-84
2021/12/21 09:00:46;;;;;;;;;22.67;19.33;;;;;1.79;100.00;102009.19;5023712;28;44839;-85
2021/12/21 09:03:12;;;;;;;;;19.00;15.00;;;;;1.83;100.00;102004.78;5024033;28;44855;-85
2021/12/21 09:05:39;;;;;;;;;26.33;20.00;;;;;1.89;100.00;102007.34;5022759;28;45318;-83
2021/12/21 09:08:06;;;;;;;;;21.00;17.00;;;;;1.89;100.00;102008.22;5020698;28;44707;-83
2021/12/21 09:10:32;;;;;;;;;20.00;16.33;;;;;1.92;100.00;102009.94;5021481;28;45167;-85
2021/12/21 09:12:59;;;;;;;;;22.67;18.33;;;;;1.98;100.00;102007.22;5024240;28;45183;-85
2021/12/21 09:15:26;;;;;;;;;21.00;18.67;;;;;2.01;100.00;102009.81;5024879;28;45189;-85
2021/12/21 09:17:52;;;;;;;;;21.00;18.00;;;;;2.02;100.00;102004.56;5027185;28;44826;-84
2021/12/21 09:20:20;;;;;;;;;26.00;21.00;;;;;2.12;100.00;102015.81;5023357;28;44833;-85
2021/12/21 09:22:53;;;;;;;;;26.33;20.00;;;;;2.19;100.00;102017.50;5028389;28;44805;-92
2021/12/21 09:25:20;;;;;;;;;22.33;17.67;;;;;2.26;100.00;102020.91;5025494;28;45257;-85
2021/12/21 09:27:47;;;;;;;;;26.00;17.67;;;;;2.36;100.00;102019.03;5028469;28;44695;-90
2021/12/21 09:30:16;;;;;;;;;24.67;20.33;;;;;2.47;100.00;102015.41;5029430;28;44631;-86
2021/12/21 09:32:42;;;;;;;;;16.67;13.67;;;;;2.55;100.00;102008.28;5028193;28;44870;-86
2021/12/21 09:35:08;;;;;;;;;21.00;21.00;;;;;2.56;100.00;102015.28;5027218;28;45024;-90
2021/12/21 09:37:34;;;;;;;;;33.33;21.00;;;;;2.57;100.00;102016.16;5022822;28;44855;-86
2021/12/21 09:40:00;;;;;;;;;20.67;20.00;;;;;2.50;100.00;102017.97;5021536;28;44777;-85
2021/12/21 09:42:29;;;;;;;;;40.00;25.00;;;;;2.41;100.00;102019.84;5020049;28;45419;-82
2021/12/21 09:44:57;;;;;;;;;26.33;18.67;;;;;2.40;100.00;102024.22;5020147;28;45143;-84
2021/12/21 09:47:22;;;;;;;;;23.67;21.67;;;;;2.42;100.00;102025.09;5019173;28;44844;-84
2021/12/21 09:49:49;;;;;;;;;25.00;16.67;;;;;2.47;100.00;102030.28;5019290;28;45311;-84
2021/12/21 09:52:20;;;;;;;;;19.33;11.00;;;;;2.50;100.00;102025.84;5020768;28;44814;-85
2021/12/21 09:54:47;;;;;;;;;19.67;17.00;;;;;2.52;100.00;102031.09;5021156;28;45192;-85
2021/12/21 09:57:16;;;;;;;;;17.67;16.00;;;;;2.55;100.00;102033.66;5021171;28;45363;-85
2021/12/21 09:59:43;;;;;;;;;34.33;25.00;;;;;2.50;100.00;102035.47;5022432;28;44726;-85
2021/12/21 10:02:09;;;;;;;;;34.00;25.00;;;;;2.52;100.00;102033.72;5025036;28;44845;-88
2021/12/21 10:04:55;;;;;;;;;26.33;23.00;;;;;2.62;100.00;102037.06;5025355;28;45063;-85
2021/12/21 10:07:22;;;;;;;;;21.67;16.00;;;;;2.70;100.00;102041.31;5020358;28;45446;-84
2021/12/21 10:09:49;;;;;;;;;26.67;21.67;;;;;2.81;100.00;102035.94;5019306;28;44707;-85
2021/12/21 10:12:27;;;;;;;;;24.33;20.00;;;;;2.82;100.00;102038.53;5019684;28;45443;-86
2021/12/21 10:15:17;;;;;;;;;25.00;22.33;;;;;2.73;100.00;102030.78;5019029;28;45293;-85
2021/12/21 10:18:00;;;;;;;;;16.33;13.67;;;;;2.69;100.00;102031.72;5018477;28;44692;-86
2021/12/21 10:20:34;;;;;;;;;32.33;29.00;;;;;2.82;100.00;102035.03;5020013;28;44679;-84
2021/12/21 10:23:06;;;;;;;;;22.00;20.33;;;;;2.89;100.00;102025.31;5020321;28;44797;-85
2021/12/21 10:25:31;;;;;;;;;26.00;23.67;;;;;3.04;100.00;102033.81;5020064;28;45303;-84
2021/12/21 10:27:57;;;;;;;;;31.33;25.00;;;;;3.12;100.00;102038.13;5021882;28;45189;-85
2021/12/21 10:30:22;;;;;;;;;28.33;23.67;;;;;3.07;100.00;102035.56;5023999;28;44904;-85
2021/12/21 10:32:54;;;;;;;;;33.00;26.67;;;;;3.14;100.00;102031.94;5025489;28;45237;-85
2021/12/21 10:35:28;;;;;;;;;32.67;29.33;;;;;3.20;100.00;102026.59;5022430;28;45458;-86
2021/12/21 10:37:54;;;;;;;;;24.00;17.33;;;;;3.18;100.00;102024.88;5019324;28;44832;-85
2021/12/21 10:40:28;;;;;;;;;28.67;24.67;;;;;3.09;100.00;102025.88;5023488;28;44784;-85
2021/12/21 10:43:05;;;;;;;;;24.33;23.00;;;;;3.01;100.00;102010.28;5025157;28;44829;-85
2021/12/21 10:45:36;;;;;;;;;30.00;29.00;;;;;3.04;100.00;102022.47;5021357;28;45313;-84
2021/12/21 10:48:06;;;;;;;;;33.00;30.33;;;;;3.14;100.00;102026.69;5021356;28;45324;-85
2021/12/21 10:50:34;;;;;;;;;30.67;27.33;;;;;3.23;100.00;102016.03;5021251;28;45241;-85
2021/12/21 10:53:02;;;;;;;;;31.00;25.67;;;;;3.32;100.00;102015.91;5019051;28;45217;-85
2021/12/21 10:55:33;;;;;;;;;31.67;26.33;;;;;3.48;100.00;102010.38;5034567;28;46797;-86
2021/12/21 10:58:15;;;;;;;;;29.00;25.67;;;;;3.65;100.00;102013.59;5021167;28;45222;-87
2021/12/21 11:00:51;;;;;;;;;39.33;31.00;;;;;3.77;100.00;102004.59;5020438;28;44854;-86
2021/12/21 11:03:17;;;;;;;;;33.00;24.67;;;;;3.84;100.00;102009.75;5020090;28;44835;-86
2021/12/21 11:05:45;;;;;;;;;32.33;30.00;;;;;3.89;100.00;101996.50;5020595;28;45002;-85
2021/12/21 11:08:16;;;;;;;;;37.00;29.67;;;;;3.92;100.00;102000.84;5020264;28;45281;-87
2021/12/21 11:10:50;;;;;;;;;29.33;29.33;;;;;3.99;100.00;101995.44;5020142;28;44893;-86
2021/12/21 11:13:16;;;;;;;;;52.00;41.00;;;;;4.05;100.00;102000.56;5019869;28;45403;-85
2021/12/21 11:15:52;;;;;;;;;32.67;26.67;;;;;4.03;100.00;102005.00;5018926;28;45101;-86
2021/12/21 11:18:18;;;;;;;;;35.00;26.33;;;;;3.97;100.00;102007.75;5019659;28;44777;-84
2021/12/21 11:20:48;;;;;;;;;29.67;24.67;;;;;3.98;100.00;102006.84;5018175;28;45510;-86
2021/12/21 11:23:15;;;;;;;;;35.33;28.33;;;;;3.96;100.00;102002.50;5019719;28;44894;-83
2021/12/21 11:25:46;;;;;;;;;35.67;29.67;;;;;4.07;100.00;101995.28;5037284;28;45207;-83
2021/12/21 11:28:17;;;;;;;;;30.67;29.00;;;;;4.09;100.00;101991.72;5037782;28;45550;-84
2021/12/21 11:30:42;;;;;;;;;32.00;26.67;;;;;3.92;100.00;101983.31;5022534;28;45492;-84
2021/12/21 11:33:10;;;;;;;;;31.67;25.33;;;;;3.87;100.00;101979.91;5027177;28;44885;-84
2021/12/21 11:38:05;;;;;;;;;33.00;31.00;;;;;3.83;100.00;101994.88;5024820;28;44869;-86
2021/12/21 11:40:34;;;;;;;;;49.00;36.00;;;;;3.81;100.00;101995.78;5022063;28;44842;-85
2021/12/21 11:43:08;;;;;;;;;31.33;26.00;;;;;3.77;100.00;101973.97;5021781;28;45352;-85
2021/12/21 11:45:45;;;;;;;;;30.00;25.67;;;;;3.82;100.00;101973.84;5021535;28;45240;-85
2021/12/21 11:48:10;;;;;;;;;37.67;29.67;;;;;3.83;100.00;101965.94;5022267;28;45372;-86
2021/12/21 11:50:43;;;;;;;;;24.67;18.00;;;;;3.85;100.00;101972.03;5022472;28;44889;-86
2021/12/21 11:53:15;;;;;;;;;47.00;34.67;;;;;3.84;100.00;101964.19;5023957;28;45244;-86
2021/12/21 11:55:44;;;;;;;;;36.33;32.00;;;;;3.85;100.00;101968.53;5020752;28;45453;-86
2021/12/21 11:58:28;;;;;;;;;34.33;30.33;;;;;3.93;100.00;101968.41;5035847;28;45297;-86
2021/12/21 12:00:58;;;;;;;;;38.67;33.67;;;;;4.01;100.00;101956.84;5019596;28;44904;-86
2021/12/21 12:03:27;;;;;;;;;35.67;31.33;;;;;4.06;100.00;101957.63;5020556;28;44777;-86
2021/12/21 12:06:00;;;;;;;;;32.33;26.33;;;;;4.07;100.00;101959.34;5018403;28;47208;-85
2021/12/21 12:08:28;;;;;;;;;33.33;28.33;;;;;4.12;100.00;101956.63;5019769;28;45444;-87
2021/12/21 12:10:59;;;;;;;;;40.33;32.00;;;;;4.10;100.00;101961.03;5022973;28;44830;-85
2021/12/21 12:13:34;;;;;;;;;45.00;32.67;;;;;4.17;100.00;101962.66;5025401;28;44978;-86
2021/12/21 12:16:07;;;;;;;;;31.67;26.67;;;;;4.21;100.00;101951.19;5032052;28;45002;-87
2021/12/21 12:18:47;;;;;;;;;28.00;20.33;;;;;4.23;100.00;101945.88;5032652;28;44761;-86
2021/12/21 12:21:16;;;;;;;;;35.00;33.67;;;;;4.26;100.00;101940.56;5040882;28;44774;-87
2021/12/21 12:23:54;;;;;;;;;33.33;28.00;;;;;4.31;100.00;101933.44;5037494;28;45483;-86
2021/12/21 12:26:29;;;;;;;;;48.00;32.67;;;;;4.24;100.00;101943.22;5034246;28;45005;-85
2021/12/21 12:29:09;;;;;;;;;34.00;30.33;;;;;4.25;100.00;101929.16;5036978;28;44742;-85
2021/12/21 12:31:37;;;;;;;;;41.67;36.00;;;;;4.24;100.00;101931.81;5022090;28;44786;-84